Time,TemperatureF,DewpointF,PressureIn,WindDirection,WindDirectionDegrees,WindSpeedMPH,WindSpeedGustMPH,Humidity,HourlyPrecipIn,Conditions,Clouds,dailyrainin,SoftwareType,DateUTC
2013-02-04 00:01:00,58.0,33.0,29.97,SE,138,9.0,18.0,38,0.00,,,0.00,,2013-02-04 06:01:00,
2013-02-04 00:11:00,58.0,33.0,29.97,SE,138,9.0,18.0,38,0.00,,,0.00,,2013-02-04 06:11:00,
2013-02-04 00:21:00,58.0,33.0,29.97,SSE,154,8.0,20.0,38,0.00,,,0.00,,2013-02-04 06:21:00,
2013-02-04 00:31:00,57.0,32.0,29.96,SE,144,9.0,15.0,38,0.00,,,0.00,,2013-02-04 06:31:00,
2013-02-04 00:41:00,57.0,32.0,29.96,SE,144,9.0,15.0,38,0.00,,,0.00,,2013-02-04 06:41:00,
2013-02-04 00:52:00,57.0,32.0,29.95,SE,143,7.0,12.0,39,0.00,,,0.00,,2013-02-04 06:52:00,
2013-02-04 01:02:00,57.0,32.0,29.96,SSE,147,7.0,12.0,39,0.00,,,0.00,,2013-02-04 07:02:00,
2013-02-04 01:11:00,57.0,32.0,29.96,SSE,154,4.0,10.0,39,0.00,,,0.00,,2013-02-04 07:11:00,
2013-02-04 01:21:00,57.0,32.0,29.96,SSE,154,4.0,10.0,39,0.00,,,0.00,,2013-02-04 07:21:00,
2013-02-04 01:31:00,57.0,33.0,29.95,SSE,150,5.0,8.0,40,0.00,,,0.00,,2013-02-04 07:31:00,
2013-02-04 01:41:00,57.0,33.0,29.95,SSE,150,5.0,8.0,40,0.00,,,0.00,,2013-02-04 07:41:00,
2013-02-04 01:52:00,57.0,33.0,29.95,SSE,149,5.0,10.0,40,0.00,,,0.00,,2013-02-04 07:52:00,
2013-02-04 02:01:00,57.0,34.0,29.95,SSE,149,5.0,12.0,42,0.00,,,0.00,,2013-02-04 08:01:00,
2013-02-04 02:11:00,57.0,34.0,29.95,SSE,149,5.0,12.0,42,0.00,,,0.00,,2013-02-04 08:11:00,
2013-02-04 02:21:00,57.0,35.0,29.95,SSE,150,7.0,13.0,43,0.00,,,0.00,,2013-02-04 08:21:00,
2013-02-04 02:31:00,57.0,36.0,29.94,SE,143,7.0,13.0,45,0.00,,,0.00,,2013-02-04 08:31:00,
2013-02-04 02:42:00,57.0,36.0,29.94,SE,143,7.0,13.0,45,0.00,,,0.00,,2013-02-04 08:42:00,
2013-02-04 02:52:00,58.0,38.0,29.93,SE,145,7.0,18.0,47,0.00,,,0.00,,2013-02-04 08:52:00,
2013-02-04 03:02:00,58.0,39.0,29.92,SSE,153,7.0,13.0,49,0.00,,,0.00,,2013-02-04 09:02:00,
2013-02-04 03:11:00,57.0,39.0,29.92,SSE,162,8.0,14.0,50,0.00,,,0.00,,2013-02-04 09:11:00,
2013-02-04 03:21:00,57.0,39.0,29.92,SSE,162,8.0,14.0,50,0.00,,,0.00,,2013-02-04 09:21:00,
2013-02-04 03:31:00,57.0,40.0,29.92,SSE,151,5.0,10.0,52,0.00,,,0.00,,2013-02-04 09:31:00,
2013-02-04 03:41:00,57.0,40.0,29.92,SSE,151,5.0,10.0,52,0.00,,,0.00,,2013-02-04 09:41:00,
2013-02-04 03:52:00,57.0,40.0,29.92,SSE,151,6.0,13.0,52,0.00,,,0.00,,2013-02-04 09:52:00,
2013-02-04 04:01:00,57.0,41.0,29.91,SSE,147,6.0,13.0,54,0.00,,,0.00,,2013-02-04 10:01:00,
2013-02-04 04:11:00,57.0,41.0,29.91,SSE,147,6.0,13.0,54,0.00,,,0.00,,2013-02-04 10:11:00,
2013-02-04 04:21:00,57.0,41.0,29.91,SE,146,5.0,14.0,56,0.00,,,0.00,,2013-02-04 10:21:00,
2013-02-04 04:32:00,56.0,41.0,29.90,SSE,160,6.0,14.0,58,0.00,,,0.00,,2013-02-04 10:32:00,
2013-02-04 04:41:00,56.0,41.0,29.90,SSE,160,6.0,14.0,58,0.00,,,0.00,,2013-02-04 10:41:00,
2013-02-04 04:52:00,56.0,42.0,29.90,SE,145,6.0,15.0,59,0.00,,,0.00,,2013-02-04 10:52:00,
2013-02-04 05:01:00,56.0,42.0,29.89,SE,143,7.0,13.0,59,0.00,,,0.00,,2013-02-04 11:01:00,
2013-02-04 05:11:00,56.0,42.0,29.89,SE,143,7.0,13.0,59,0.00,,,0.00,,2013-02-04 11:11:00,
2013-02-04 05:22:00,56.0,43.0,29.90,SSE,151,5.0,14.0,61,0.00,,,0.00,,2013-02-04 11:22:00,
2013-02-04 05:32:00,56.0,43.0,29.89,SE,138,7.0,13.0,62,0.00,,,0.00,,2013-02-04 11:32:00,
2013-02-04 05:42:00,56.0,43.0,29.89,SE,138,7.0,13.0,62,0.00,,,0.00,,2013-02-04 11:42:00,
2013-02-04 05:52:00,56.0,44.0,29.89,SSE,149,7.0,12.0,63,0.00,,,0.00,,2013-02-04 11:52:00,
2013-02-04 06:02:00,56.0,44.0,29.88,SE,137,7.0,14.0,63,0.00,,,0.00,,2013-02-04 12:02:00,
2013-02-04 06:12:00,56.0,44.0,29.88,SE,137,7.0,14.0,63,0.00,,,0.00,,2013-02-04 12:12:00,
2013-02-04 06:22:00,56.0,44.0,29.89,SSE,154,6.0,13.0,64,0.00,,,0.00,,2013-02-04 12:22:00,
2013-02-04 06:32:00,55.0,44.0,29.88,SE,135,8.0,15.0,67,0.00,,,0.00,,2013-02-04 12:32:00,
2013-02-04 06:42:00,55.0,44.0,29.88,SE,135,8.0,15.0,67,0.00,,,0.00,,2013-02-04 12:42:00,
2013-02-04 06:52:00,55.0,45.0,29.88,SSE,147,5.0,13.0,68,0.00,,,0.00,,2013-02-04 12:52:00,
2013-02-04 07:02:00,55.0,45.0,29.88,SSE,148,7.0,16.0,70,0.00,,,0.00,,2013-02-04 13:02:00,
2013-02-04 07:12:00,54.0,47.0,29.89,South,184,2.0,7.0,77,0.03,,,0.03,,2013-02-04 13:12:00,
2013-02-04 07:21:00,54.0,47.0,29.89,South,184,2.0,7.0,77,0.03,,,0.03,,2013-02-04 13:21:00,
2013-02-04 07:33:00,52.0,48.0,29.89,SSE,148,5.0,8.0,85,0.07,,,0.07,,2013-02-04 13:33:00,
2013-02-04 07:42:00,52.0,48.0,29.89,SSE,148,5.0,8.0,85,0.07,,,0.07,,2013-02-04 13:42:00,
2013-02-04 07:52:00,52.0,48.0,29.89,SE,144,4.0,7.0,85,0.07,,,0.07,,2013-02-04 13:52:00,
2013-02-04 08:03:00,53.0,49.0,29.89,SE,138,5.0,10.0,87,0.07,,,0.07,,2013-02-04 14:03:00,
2013-02-04 08:11:00,53.0,49.0,29.89,SE,138,5.0,10.0,87,0.07,,,0.07,,2013-02-04 14:11:00,
2013-02-04 08:22:00,53.0,50.0,29.88,SE,140,7.0,12.0,88,0.04,,,0.07,,2013-02-04 14:22:00,
2013-02-04 08:32:00,53.0,50.0,29.88,SE,143,9.0,12.0,89,0.00,,,0.07,,2013-02-04 14:32:00,
2013-02-04 08:42:00,54.0,51.0,29.88,SE,136,5.0,13.0,88,0.00,,,0.07,,2013-02-04 14:42:00,
2013-02-04 08:52:00,54.0,51.0,29.88,SE,136,5.0,13.0,88,0.00,,,0.07,,2013-02-04 14:52:00,
2013-02-04 09:03:00,55.0,51.0,29.88,SE,145,6.0,12.0,87,0.00,,,0.07,,2013-02-04 15:03:00,
2013-02-04 09:12:00,55.0,51.0,29.88,SE,145,6.0,12.0,87,0.00,,,0.07,,2013-02-04 15:12:00,
2013-02-04 09:23:00,55.0,51.0,29.88,SE,146,8.0,14.0,87,0.00,,,0.07,,2013-02-04 15:23:00,
2013-02-04 09:33:00,55.0,51.0,29.88,SSE,160,7.0,12.0,86,0.00,,,0.07,,2013-02-04 15:33:00,
2013-02-04 09:43:00,55.0,51.0,29.88,SSE,160,7.0,12.0,86,0.00,,,0.07,,2013-02-04 15:43:00,
2013-02-04 09:52:00,56.0,52.0,29.88,SSE,150,10.0,18.0,85,0.00,,,0.07,,2013-02-04 15:52:00,
2013-02-04 10:02:00,56.0,52.0,29.87,SSE,152,9.0,15.0,86,0.00,,,0.07,,2013-02-04 16:02:00,
2013-02-04 10:11:00,56.0,52.0,29.87,SSE,152,9.0,15.0,86,0.00,,,0.07,,2013-02-04 16:11:00,
2013-02-04 10:22:00,57.0,53.0,29.88,SE,144,9.0,18.0,85,0.00,,,0.07,,2013-02-04 16:22:00,
2013-02-04 10:32:00,58.0,53.0,29.88,SSE,160,9.0,18.0,83,0.00,,,0.07,,2013-02-04 16:32:00,
2013-02-04 10:42:00,58.0,53.0,29.88,SSE,160,9.0,18.0,83,0.00,,,0.07,,2013-02-04 16:42:00,
2013-02-04 10:52:00,59.0,54.0,29.88,SSE,156,7.0,14.0,83,0.00,,,0.07,,2013-02-04 16:52:00,
2013-02-04 11:02:00,60.0,54.0,29.88,SE,146,9.0,16.0,82,0.00,,,0.07,,2013-02-04 17:02:00,
2013-02-04 11:11:00,61.0,55.0,29.87,SSE,156,8.0,18.0,82,0.00,,,0.07,,2013-02-04 17:11:00,
2013-02-04 11:21:00,61.0,55.0,29.87,SSE,156,8.0,18.0,82,0.00,,,0.07,,2013-02-04 17:21:00,
2013-02-04 11:31:00,61.0,55.0,29.86,South,175,9.0,20.0,81,0.00,,,0.07,,2013-02-04 17:31:00,
2013-02-04 11:42:00,63.0,56.0,29.86,SSE,162,11.0,16.0,79,0.00,,,0.07,,2013-02-04 17:42:00,
2013-02-04 11:52:00,63.0,56.0,29.86,SSE,162,11.0,16.0,79,0.00,,,0.07,,2013-02-04 17:52:00,
2013-02-04 12:03:00,63.0,56.0,29.85,South,182,11.0,21.0,78,0.00,,,0.07,,2013-02-04 18:03:00,
2013-02-04 12:11:00,63.0,56.0,29.85,South,182,11.0,21.0,78,0.00,,,0.07,,2013-02-04 18:11:00,
2013-02-04 12:22:00,64.0,57.0,29.85,SSE,167,6.0,12.0,78,0.00,,,0.07,,2013-02-04 18:22:00,
2013-02-04 12:31:00,64.0,56.0,29.84,South,169,9.0,18.0,76,0.00,,,0.07,,2013-02-04 18:31:00,
2013-02-04 12:41:00,64.0,56.0,29.84,South,169,9.0,18.0,76,0.00,,,0.07,,2013-02-04 18:41:00,
2013-02-04 12:52:00,65.0,57.0,29.83,SSW,211,9.0,20.0,75,0.00,,,0.07,,2013-02-04 18:52:00,
2013-02-04 13:02:00,66.0,57.0,29.83,South,190,3.0,12.0,74,0.00,,,0.07,,2013-02-04 19:02:00,
2013-02-04 13:11:00,66.0,57.0,29.83,South,190,3.0,12.0,74,0.00,,,0.07,,2013-02-04 19:11:00,
2013-02-04 13:22:00,66.0,57.0,29.82,SSW,208,7.0,13.0,72,0.00,,,0.07,,2013-02-04 19:22:00,
2013-02-04 13:31:00,67.0,57.0,29.80,SE,140,5.0,13.0,71,0.00,,,0.07,,2013-02-04 19:31:00,
2013-02-04 13:41:00,67.0,57.0,29.80,SE,140,5.0,13.0,71,0.00,,,0.07,,2013-02-04 19:41:00,
2013-02-04 13:52:00,68.0,57.0,29.79,SSE,168,6.0,13.0,69,0.00,,,0.07,,2013-02-04 19:52:00,
2013-02-04 14:02:00,69.0,58.0,29.78,SSE,161,7.0,13.0,67,0.00,,,0.07,,2013-02-04 20:02:00,
2013-02-04 14:12:00,69.0,58.0,29.78,SSE,161,7.0,13.0,67,0.00,,,0.07,,2013-02-04 20:12:00,
2013-02-04 14:21:00,70.0,58.0,29.77,South,172,5.0,9.0,65,0.00,,,0.07,,2013-02-04 20:21:00,
2013-02-04 14:32:00,71.0,56.0,29.77,SSW,202,7.0,12.0,59,0.00,,,0.07,,2013-02-04 20:32:00,
2013-02-04 14:42:00,71.0,56.0,29.77,SSW,202,7.0,12.0,59,0.00,,,0.07,,2013-02-04 20:42:00,
2013-02-04 14:52:00,71.0,57.0,29.77,SSE,163,1.0,7.0,61,0.00,,,0.07,,2013-02-04 20:52:00,
2013-02-04 15:02:00,71.0,55.0,29.77,SSE,161,3.0,8.0,58,0.00,,,0.07,,2013-02-04 21:02:00,
2013-02-04 15:11:00,71.0,55.0,29.77,SSE,161,3.0,8.0,58,0.00,,,0.07,,2013-02-04 21:11:00,
2013-02-04 15:22:00,72.0,57.0,29.76,SE,139,4.0,9.0,59,0.00,,,0.07,,2013-02-04 21:22:00,
2013-02-04 15:31:00,72.0,57.0,29.75,SE,127,5.0,9.0,59,0.00,,,0.07,,2013-02-04 21:31:00,
2013-02-04 15:42:00,72.0,57.0,29.75,SE,127,5.0,9.0,59,0.00,,,0.07,,2013-02-04 21:42:00,
2013-02-04 15:52:00,73.0,57.0,29.75,ESE,121,1.0,6.0,58,0.00,,,0.07,,2013-02-04 21:52:00,
2013-02-04 16:02:00,73.0,58.0,29.75,SSE,151,3.0,10.0,60,0.00,,,0.07,,2013-02-04 22:02:00,
2013-02-04 16:12:00,73.0,58.0,29.75,SSE,151,3.0,10.0,60,0.00,,,0.07,,2013-02-04 22:12:00,
2013-02-04 16:21:00,72.0,57.0,29.75,SE,139,5.0,12.0,59,0.00,,,0.07,,2013-02-04 22:21:00,
2013-02-04 16:32:00,72.0,57.0,29.76,SE,134,5.0,10.0,60,0.00,,,0.07,,2013-02-04 22:32:00,
2013-02-04 16:41:00,72.0,57.0,29.76,SE,134,5.0,10.0,60,0.00,,,0.07,,2013-02-04 22:41:00,
2013-02-04 16:52:00,73.0,58.0,29.76,ESE,110,3.0,7.0,60,0.00,,,0.07,,2013-02-04 22:52:00,
2013-02-04 17:01:00,72.0,58.0,29.76,ESE,121,4.0,9.0,61,0.00,,,0.07,,2013-02-04 23:01:00,
2013-02-04 17:11:00,72.0,58.0,29.76,ESE,121,4.0,9.0,61,0.00,,,0.07,,2013-02-04 23:11:00,
2013-02-04 17:21:00,71.0,57.0,29.76,ESE,115,4.0,9.0,61,0.00,,,0.07,,2013-02-04 23:21:00,
2013-02-04 17:32:00,70.0,57.0,29.77,East,84,2.0,6.0,64,0.00,,,0.07,,2013-02-04 23:32:00,
2013-02-04 17:42:00,70.0,57.0,29.77,East,84,2.0,6.0,64,0.00,,,0.07,,2013-02-04 23:42:00,
2013-02-04 17:52:00,70.0,58.0,29.77,ESE,109,1.0,5.0,66,0.00,,,0.07,,2013-02-04 23:52:00,
2013-02-04 18:01:00,69.0,58.0,29.76,SE,131,6.0,9.0,67,0.00,,,0.07,,2013-02-05 00:01:00,
2013-02-04 18:11:00,69.0,58.0,29.76,SE,131,6.0,9.0,67,0.00,,,0.07,,2013-02-05 00:11:00,
2013-02-04 18:21:00,68.0,57.0,29.77,ESE,119,3.0,6.0,68,0.00,,,0.07,,2013-02-05 00:21:00,
2013-02-04 18:31:00,68.0,57.0,29.78,ESE,121,2.0,7.0,69,0.00,,,0.07,,2013-02-05 00:31:00,
2013-02-04 18:42:00,68.0,57.0,29.78,ESE,121,2.0,7.0,69,0.00,,,0.07,,2013-02-05 00:42:00,
2013-02-04 18:52:00,67.0,57.0,29.78,ESE,119,1.0,3.0,71,0.00,,,0.07,,2013-02-05 00:52:00,
2013-02-04 19:01:00,66.0,57.0,29.79,ESE,118,3.0,6.0,73,0.00,,,0.07,,2013-02-05 01:01:00,
2013-02-04 19:11:00,66.0,57.0,29.79,ESE,117,3.0,6.0,74,0.00,,,0.07,,2013-02-05 01:11:00,
2013-02-04 19:22:00,66.0,57.0,29.79,ESE,117,3.0,6.0,74,0.00,,,0.07,,2013-02-05 01:22:00,
2013-02-04 19:32:00,65.0,57.0,29.80,ESE,115,1.0,6.0,75,0.00,,,0.07,,2013-02-05 01:32:00,
2013-02-04 19:42:00,65.0,57.0,29.80,ESE,115,1.0,6.0,75,0.00,,,0.07,,2013-02-05 01:42:00,
2013-02-04 19:52:00,65.0,57.0,29.80,ESE,113,1.0,5.0,76,0.00,,,0.07,,2013-02-05 01:52:00,
2013-02-04 20:01:00,64.0,57.0,29.80,ESE,111,2.0,6.0,78,0.00,,,0.07,,2013-02-05 02:01:00,
2013-02-04 20:11:00,64.0,57.0,29.80,ESE,111,2.0,6.0,78,0.00,,,0.07,,2013-02-05 02:11:00,
2013-02-04 20:21:00,64.0,57.0,29.81,ESE,112,0.0,2.0,79,0.00,,,0.07,,2013-02-05 02:21:00,
2013-02-04 20:31:00,63.0,57.0,29.82,ESE,112,1.0,5.0,80,0.00,,,0.07,,2013-02-05 02:31:00,
2013-02-04 20:41:00,63.0,57.0,29.82,ESE,112,1.0,5.0,80,0.00,,,0.07,,2013-02-05 02:41:00,
2013-02-04 20:52:00,63.0,57.0,29.83,ESE,112,0.0,3.0,80,0.00,,,0.07,,2013-02-05 02:52:00,
2013-02-04 21:02:00,62.0,56.0,29.83,ESE,111,1.0,3.0,81,0.00,,,0.07,,2013-02-05 03:02:00,
2013-02-04 21:11:00,62.0,56.0,29.83,ESE,111,1.0,3.0,81,0.00,,,0.07,,2013-02-05 03:11:00,
2013-02-04 21:21:00,62.0,56.0,29.83,ESE,111,2.0,6.0,82,0.00,,,0.07,,2013-02-05 03:21:00,
2013-02-04 21:31:00,62.0,57.0,29.83,ESE,112,1.0,5.0,83,0.00,,,0.07,,2013-02-05 03:31:00,
2013-02-04 21:42:00,62.0,57.0,29.83,ESE,112,1.0,5.0,83,0.00,,,0.07,,2013-02-05 03:42:00,
2013-02-04 21:52:00,61.0,56.0,29.84,ESE,112,2.0,6.0,84,0.00,,,0.07,,2013-02-05 03:52:00,
2013-02-04 22:01:00,61.0,56.0,29.84,ESE,113,3.0,6.0,84,0.00,,,0.07,,2013-02-05 04:01:00,
2013-02-04 22:11:00,61.0,56.0,29.84,ESE,113,3.0,6.0,84,0.00,,,0.07,,2013-02-05 04:11:00,
2013-02-04 22:21:00,61.0,56.0,29.84,ESE,112,3.0,6.0,85,0.00,,,0.07,,2013-02-05 04:21:00,
2013-02-04 22:32:00,61.0,57.0,29.83,SE,130,6.0,10.0,86,0.00,,,0.07,,2013-02-05 04:32:00,
2013-02-04 22:42:00,61.0,57.0,29.83,SE,130,6.0,10.0,86,0.00,,,0.07,,2013-02-05 04:42:00,
2013-02-04 22:52:00,60.0,56.0,29.84,SE,124,5.0,9.0,86,0.00,,,0.07,,2013-02-05 04:52:00,
2013-02-04 23:02:00,60.0,56.0,29.84,SE,130,3.0,7.0,87,0.00,,,0.07,,2013-02-05 05:02:00,
2013-02-04 23:11:00,60.0,56.0,29.84,SE,130,3.0,7.0,87,0.00,,,0.07,,2013-02-05 05:11:00,
2013-02-04 23:21:00,60.0,56.0,29.84,SE,128,3.0,6.0,88,0.00,,,0.07,,2013-02-05 05:21:00,
2013-02-04 23:32:00,59.0,55.0,29.84,SE,128,2.0,5.0,88,0.00,,,0.07,,2013-02-05 05:32:00,
2013-02-04 23:42:00,59.0,55.0,29.84,SE,128,2.0,5.0,88,0.00,,,0.07,,2013-02-05 05:42:00,
2013-02-04 23:52:00,59.0,56.0,29.85,SE,128,0.0,3.0,89,0.00,,,0.07,,2013-02-05 05:52:00,